sensor_id;sensor_type;location;lat;lon;timestamp;P1;durP1;ratioP1;P2;durP2;ratioP2
69636;SDS011;56860;51.144;16.954;2024-03-02T00:00:58;47.8;;;91.9;;
69636;SDS011;56860;51.144;16.954;2024-03-02T00:01:58;47.8;;;91.9;;
69636;SDS011;56860;51.144;16.954;2024-03-02T00:02:59;47.9;;;95.8;;
69636;SDS011;56860;51.144;16.954;2024-03-02T00:03:58;47.3;;;94.5;;
69636;SDS011;56860;51.144;16.954;2024-03-02T00:04:58;47.3;;;94.5;;
69636;SDS011;56860;51.144;16.954;2024-03-02T00:05:58;49.8;;;102.6;;
69636;SDS011;56860;51.144;16.954;2024-03-02T00:06:58;48.5;;;99.2;;
69636;SDS011;56860;51.144;16.954;2024-03-02T00:07:58;48.5;;;99.2;;
69636;SDS011;56860;51.144;16.954;2024-03-02T00:08:58;37.8;;;62.8;;
69636;SDS011;56860;51.144;16.954;2024-03-02T00:09:58;48.7;;;93.0;;
69636;SDS011;56860;51.144;16.954;2024-03-02T00:10:59;48.7;;;93.0;;
69636;SDS011;56860;51.144;16.954;2024-03-02T00:11:58;39.8;;;75.5;;
69636;SDS011;56860;51.144;16.954;2024-03-02T00:12:59;48.2;;;91.1;;
69636;SDS011;56860;51.144;16.954;2024-03-02T00:13:58;48.2;;;91.1;;
69636;SDS011;56860;51.144;16.954;2024-03-02T00:14:59;48.2;;;91.1;;
69636;SDS011;56860;51.144;16.954;2024-03-02T00:15:58;45.9;;;88.3;;
69636;SDS011;56860;51.144;16.954;2024-03-02T00:16:58;45.9;;;88.3;;
69636;SDS011;56860;51.144;16.954;2024-03-02T00:17:58;45.9;;;88.3;;
69636;SDS011;56860;51.144;16.954;2024-03-02T00:19:01;46.7;;;86.7;;
69636;SDS011;56860;51.144;16.954;2024-03-02T00:19:58;46.7;;;86.7;;
69636;SDS011;56860;51.144;16.954;2024-03-02T00:20:58;46.7;;;86.7;;
69636;SDS011;56860;51.144;16.954;2024-03-02T00:22:00;47.7;;;89.3;;
69636;SDS011;56860;51.144;16.954;2024-03-02T00:23:00;47.7;;;89.3;;
69636;SDS011;56860;51.144;16.954;2024-03-02T00:23:58;47.7;;;89.3;;
69636;SDS011;56860;51.144;16.954;2024-03-02T00:24:58;47.4;;;89.3;;
69636;SDS011;56860;51.144;16.954;2024-03-02T00:25:59;47.4;;;89.3;;
69636;SDS011;56860;51.144;16.954;2024-03-02T00:26:58;47.4;;;89.3;;
69636;SDS011;56860;51.144;16.954;2024-03-02T00:27:58;46.6;;;89.9;;
69636;SDS011;56860;51.144;16.954;2024-03-02T00:28:58;46.6;;;89.9;;
69636;SDS011;56860;51.144;16.954;2024-03-02T00:29:59;46.6;;;89.9;;
69636;SDS011;56860;51.144;16.954;2024-03-02T00:30:59;47.4;;;94.3;;
69636;SDS011;56860;51.144;16.954;2024-03-02T00:31:58;47.4;;;94.3;;
69636;SDS011;56860;51.144;16.954;2024-03-02T00:32:59;47.4;;;94.3;;
69636;SDS011;56860;51.144;16.954;2024-03-02T00:33:58;46.8;;;90.9;;
69636;SDS011;56860;51.144;16.954;2024-03-02T00:34:59;46.8;;;90.9;;
69636;SDS011;56860;51.144;16.954;2024-03-02T00:35:59;46.8;;;90.9;;
69636;SDS011;56860;51.144;16.954;2024-03-02T00:36:58;48.2;;;94.8;;
69636;SDS011;56860;51.144;16.954;2024-03-02T00:38:01;48.2;;;94.8;;
69636;SDS011;56860;51.144;16.954;2024-03-02T00:38:58;48.2;;;94.8;;
69636;SDS011;56860;51.144;16.954;2024-03-02T00:39:58;46.5;;;89.7;;
69636;SDS011;56860;51.144;16.954;2024-03-02T00:40:59;46.5;;;89.7;;
69636;SDS011;56860;51.144;16.954;2024-03-02T00:41:58;46.5;;;89.7;;
69636;SDS011;56860;51.144;16.954;2024-03-02T00:42:59;47.0;;;89.6;;
69636;SDS011;56860;51.144;16.954;2024-03-02T00:43:59;47.0;;;89.6;;
69636;SDS011;56860;51.144;16.954;2024-03-02T00:44:59;47.0;;;89.6;;
69636;SDS011;56860;51.144;16.954;2024-03-02T00:45:58;47.7;;;92.6;;
69636;SDS011;56860;51.144;16.954;2024-03-02T00:46:58;47.7;;;92.6;;
69636;SDS011;56860;51.144;16.954;2024-03-02T00:47:58;47.7;;;92.6;;
69636;SDS011;56860;51.144;16.954;2024-03-02T00:48:59;47.1;;;91.3;;
69636;SDS011;56860;51.144;16.954;2024-03-02T00:49:58;47.1;;;91.3;;
69636;SDS011;56860;51.144;16.954;2024-03-02T00:50:58;47.1;;;91.3;;
69636;SDS011;56860;51.144;16.954;2024-03-02T00:51:58;47.5;;;94.5;;
69636;SDS011;56860;51.144;16.954;2024-03-02T00:52:58;47.5;;;94.5;;
69636;SDS011;56860;51.144;16.954;2024-03-02T00:54:00;47.5;;;94.5;;
69636;SDS011;56860;51.144;16.954;2024-03-02T00:54:58;47.3;;;92.2;;
69636;SDS011;56860;51.144;16.954;2024-03-02T00:55:59;47.3;;;92.2;;
69636;SDS011;56860;51.144;16.954;2024-03-02T00:56:58;47.3;;;92.2;;
69636;SDS011;56860;51.144;16.954;2024-03-02T00:57:58;46.5;;;93.7;;
69636;SDS011;56860;51.144;16.954;2024-03-02T00:58:58;46.5;;;93.7;;
69636;SDS011;56860;51.144;16.954;2024-03-02T00:59:58;46.5;;;93.7;;
69636;SDS011;56860;51.144;16.954;2024-03-02T01:00:59;47.5;;;95.8;;
69636;SDS011;56860;51.144;16.954;2024-03-02T01:01:59;47.5;;;95.8;;
69636;SDS011;56860;51.144;16.954;2024-03-02T01:02:59;47.5;;;95.8;;
69636;SDS011;56860;51.144;16.954;2024-03-02T01:03:59;46.1;;;89.0;;
69636;SDS011;56860;51.144;16.954;2024-03-02T01:04:59;46.1;;;89.0;;
69636;SDS011;56860;51.144;16.954;2024-03-02T01:05:59;46.1;;;89.0;;
69636;SDS011;56860;51.144;16.954;2024-03-02T01:06:59;46.8;;;91.0;;
69636;SDS011;56860;51.144;16.954;2024-03-02T01:07:59;46.8;;;91.0;;
69636;SDS011;56860;51.144;16.954;2024-03-02T01:08:59;46.8;;;91.0;;
69636;SDS011;56860;51.144;16.954;2024-03-02T01:09:59;45.8;;;88.1;;
69636;SDS011;56860;51.144;16.954;2024-03-02T01:10:59;45.8;;;88.1;;
69636;SDS011;56860;51.144;16.954;2024-03-02T01:11:59;45.8;;;88.1;;
69636;SDS011;56860;51.144;16.954;2024-03-02T01:12:59;47.8;;;96.4;;
69636;SDS011;56860;51.144;16.954;2024-03-02T01:13:59;47.8;;;96.4;;
69636;SDS011;56860;51.144;16.954;2024-03-02T01:14:59;47.8;;;96.4;;
69636;SDS011;56860;51.144;16.954;2024-03-02T01:15:59;47.5;;;90.3;;
69636;SDS011;56860;51.144;16.954;2024-03-02T01:16:59;47.5;;;90.3;;
69636;SDS011;56860;51.144;16.954;2024-03-02T01:17:59;47.5;;;90.3;;
69636;SDS011;56860;51.144;16.954;2024-03-02T01:18:59;47.9;;;92.9;;
69636;SDS011;56860;51.144;16.954;2024-03-02T01:19:59;47.9;;;92.9;;
69636;SDS011;56860;51.144;16.954;2024-03-02T01:20:59;47.9;;;92.9;;
69636;SDS011;56860;51.144;16.954;2024-03-02T01:21:59;47.1;;;85.4;;
69636;SDS011;56860;51.144;16.954;2024-03-02T01:22:59;47.1;;;85.4;;
69636;SDS011;56860;51.144;16.954;2024-03-02T01:23:59;47.1;;;85.4;;
69636;SDS011;56860;51.144;16.954;2024-03-02T01:24:59;46.3;;;90.1;;
69636;SDS011;56860;51.144;16.954;2024-03-02T01:25:59;46.3;;;90.1;;
69636;SDS011;56860;51.144;16.954;2024-03-02T01:26:59;46.3;;;90.1;;
69636;SDS011;56860;51.144;16.954;2024-03-02T01:27:59;46.9;;;89.6;;
69636;SDS011;56860;51.144;16.954;2024-03-02T01:28:59;46.9;;;89.6;;
69636;SDS011;56860;51.144;16.954;2024-03-02T01:29:59;46.9;;;89.6;;
69636;SDS011;56860;51.144;16.954;2024-03-02T01:30:59;46.2;;;87.9;;
69636;SDS011;56860;51.144;16.954;2024-03-02T01:31:59;46.2;;;87.9;;
69636;SDS011;56860;51.144;16.954;2024-03-02T01:32:59;46.2;;;87.9;;
69636;SDS011;56860;51.144;16.954;2024-03-02T01:33:59;46.5;;;92.3;;
69636;SDS011;56860;51.144;16.954;2024-03-02T01:34:59;46.5;;;92.3;;
69636;SDS011;56860;51.144;16.954;2024-03-02T01:35:59;46.5;;;92.3;;
69636;SDS011;56860;51.144;16.954;2024-03-02T01:36:59;46.7;;;89.6;;
69636;SDS011;56860;51.144;16.954;2024-03-02T01:37:59;46.7;;;89.6;;
69636;SDS011;56860;51.144;16.954;2024-03-02T01:38:59;46.7;;;89.6;;
69636;SDS011;56860;51.144;16.954;2024-03-02T01:39:59;45.6;;;84.8;;
69636;SDS011;56860;51.144;16.954;2024-03-02T01:40:59;45.6;;;84.8;;
69636;SDS011;56860;51.144;16.954;2024-03-02T01:41:59;45.6;;;84.8;;
69636;SDS011;56860;51.144;16.954;2024-03-02T01:42:59;44.6;;;84.3;;
69636;SDS011;56860;51.144;16.954;2024-03-02T01:43:59;44.6;;;84.3;;
69636;SDS011;56860;51.144;16.954;2024-03-02T01:44:59;44.6;;;84.3;;
69636;SDS011;56860;51.144;16.954;2024-03-02T01:45:59;46.3;;;90.7;;
69636;SDS011;56860;51.144;16.954;2024-03-02T01:46:59;46.3;;;90.7;;
69636;SDS011;56860;51.144;16.954;2024-03-02T01:47:59;46.3;;;90.7;;
69636;SDS011;56860;51.144;16.954;2024-03-02T01:48:59;43.9;;;81.6;;
69636;SDS011;56860;51.144;16.954;2024-03-02T01:49:59;43.9;;;81.6;;
69636;SDS011;56860;51.144;16.954;2024-03-02T01:50:59;43.9;;;81.6;;
69636;SDS011;56860;51.144;16.954;2024-03-02T01:51:59;43.8;;;88.1;;
69636;SDS011;56860;51.144;16.954;2024-03-02T01:52:59;43.8;;;88.1;;
69636;SDS011;56860;51.144;16.954;2024-03-02T01:53:59;43.8;;;88.1;;
69636;SDS011;56860;51.144;16.954;2024-03-02T01:54:59;44.0;;;84.8;;
69636;SDS011;56860;51.144;16.954;2024-03-02T01:55:59;44.0;;;84.8;;
69636;SDS011;56860;51.144;16.954;2024-03-02T01:56:59;44.0;;;84.8;;
69636;SDS011;56860;51.144;16.954;2024-03-02T01:57:59;43.8;;;85.2;;
69636;SDS011;56860;51.144;16.954;2024-03-02T01:58:59;43.8;;;85.2;;
69636;SDS011;56860;51.144;16.954;2024-03-02T01:59:59;43.8;;;85.2;;
69636;SDS011;56860;51.144;16.954;2024-03-02T02:00:59;44.2;;;86.1;;
69636;SDS011;56860;51.144;16.954;2024-03-02T02:01:59;44.2;;;86.1;;
69636;SDS011;56860;51.144;16.954;2024-03-02T02:02:59;44.2;;;86.1;;
69636;SDS011;56860;51.144;16.954;2024-03-02T02:03:59;43.5;;;84.0;;
69636;SDS011;56860;51.144;16.954;2024-03-02T02:04:59;43.5;;;84.0;;
69636;SDS011;56860;51.144;16.954;2024-03-02T02:05:59;43.5;;;84.0;;
69636;SDS011;56860;51.144;16.954;2024-03-02T02:06:59;44.1;;;87.0;;
69636;SDS011;56860;51.144;16.954;2024-03-02T02:07:59;44.1;;;87.0;;
69636;SDS011;56860;51.144;16.954;2024-03-02T02:08:59;44.1;;;87.0;;
69636;SDS011;56860;51.144;16.954;2024-03-02T02:09:59;43.0;;;87.2;;
69636;SDS011;56860;51.144;16.954;2024-03-02T02:10:59;43.0;;;87.2;;
69636;SDS011;56860;51.144;16.954;2024-03-02T02:11:59;43.0;;;87.2;;
69636;SDS011;56860;51.144;16.954;2024-03-02T02:12:59;43.8;;;82.4;;
69636;SDS011;56860;51.144;16.954;2024-03-02T02:13:59;43.8;;;82.4;;
69636;SDS011;56860;51.144;16.954;2024-03-02T02:14:59;43.8;;;82.4;;
69636;SDS011;56860;51.144;16.954;2024-03-02T02:16:04;43.8;;;87.2;;
69636;SDS011;56860;51.144;16.954;2024-03-02T02:16:59;43.8;;;87.2;;
69636;SDS011;56860;51.144;16.954;2024-03-02T02:17:59;43.8;;;87.2;;
69636;SDS011;56860;51.144;16.954;2024-03-02T02:18:59;43.5;;;85.1;;
69636;SDS011;56860;51.144;16.954;2024-03-02T02:19:59;43.5;;;85.1;;
69636;SDS011;56860;51.144;16.954;2024-03-02T02:20:59;43.5;;;85.1;;
69636;SDS011;56860;51.144;16.954;2024-03-02T02:21:59;44.8;;;87.6;;
69636;SDS011;56860;51.144;16.954;2024-03-02T02:22:59;44.8;;;87.6;;
69636;SDS011;56860;51.144;16.954;2024-03-02T02:23:59;44.8;;;87.6;;
69636;SDS011;56860;51.144;16.954;2024-03-02T02:24:59;45.4;;;88.3;;
69636;SDS011;56860;51.144;16.954;2024-03-02T02:25:59;45.4;;;88.3;;
69636;SDS011;56860;51.144;16.954;2024-03-02T02:26:59;45.4;;;88.3;;
69636;SDS011;56860;51.144;16.954;2024-03-02T02:27:59;43.7;;;84.1;;
69636;SDS011;56860;51.144;16.954;2024-03-02T02:28:59;43.7;;;84.1;;
69636;SDS011;56860;51.144;16.954;2024-03-02T02:29:59;43.7;;;84.1;;
69636;SDS011;56860;51.144;16.954;2024-03-02T02:30:59;44.9;;;85.1;;
69636;SDS011;56860;51.144;16.954;2024-03-02T02:31:59;44.9;;;85.1;;
69636;SDS011;56860;51.144;16.954;2024-03-02T02:32:59;44.9;;;85.1;;
69636;SDS011;56860;51.144;16.954;2024-03-02T02:35:59;43.6;;;85.8;;
69636;SDS011;56860;51.144;16.954;2024-03-02T02:37:01;43.6;;;85.8;;
69636;SDS011;56860;51.144;16.954;2024-03-02T02:37:59;44.8;;;89.5;;
69636;SDS011;56860;51.144;16.954;2024-03-02T02:38:59;44.8;;;89.5;;
69636;SDS011;56860;51.144;16.954;2024-03-02T02:39:59;44.8;;;89.5;;
69636;SDS011;56860;51.144;16.954;2024-03-02T02:40:59;42.8;;;82.2;;
69636;SDS011;56860;51.144;16.954;2024-03-02T02:41:59;42.8;;;82.2;;
69636;SDS011;56860;51.144;16.954;2024-03-02T02:42:59;42.8;;;82.2;;
69636;SDS011;56860;51.144;16.954;2024-03-02T02:43:59;42.1;;;78.7;;
69636;SDS011;56860;51.144;16.954;2024-03-02T02:44:59;42.1;;;78.7;;
69636;SDS011;56860;51.144;16.954;2024-03-02T02:45:59;42.1;;;78.7;;
69636;SDS011;56860;51.144;16.954;2024-03-02T02:46:59;42.7;;;84.1;;
69636;SDS011;56860;51.144;16.954;2024-03-02T02:47:59;42.7;;;84.1;;
69636;SDS011;56860;51.144;16.954;2024-03-02T02:48:59;42.7;;;84.1;;
69636;SDS011;56860;51.144;16.954;2024-03-02T02:49:59;43.8;;;85.5;;
69636;SDS011;56860;51.144;16.954;2024-03-02T02:50:59;43.8;;;85.5;;
69636;SDS011;56860;51.144;16.954;2024-03-02T02:51:59;43.8;;;85.5;;
69636;SDS011;56860;51.144;16.954;2024-03-02T02:52:59;45.0;;;89.1;;
69636;SDS011;56860;51.144;16.954;2024-03-02T02:53:59;45.0;;;89.1;;
69636;SDS011;56860;51.144;16.954;2024-03-02T02:54:59;45.0;;;89.1;;
69636;SDS011;56860;51.144;16.954;2024-03-02T02:55:59;42.9;;;84.1;;
69636;SDS011;56860;51.144;16.954;2024-03-02T02:56:59;42.9;;;84.1;;
69636;SDS011;56860;51.144;16.954;2024-03-02T02:57:59;42.9;;;84.1;;
69636;SDS011;56860;51.144;16.954;2024-03-02T02:58:59;43.0;;;81.7;;
69636;SDS011;56860;51.144;16.954;2024-03-02T02:59:59;43.0;;;81.7;;
69636;SDS011;56860;51.144;16.954;2024-03-02T03:00:59;43.0;;;81.7;;
69636;SDS011;56860;51.144;16.954;2024-03-02T03:01:59;43.7;;;88.8;;
69636;SDS011;56860;51.144;16.954;2024-03-02T03:02:59;43.7;;;88.8;;
69636;SDS011;56860;51.144;16.954;2024-03-02T03:03:59;43.7;;;88.8;;
69636;SDS011;56860;51.144;16.954;2024-03-02T03:04:59;43.1;;;84.3;;
69636;SDS011;56860;51.144;16.954;2024-03-02T03:05:59;43.1;;;84.3;;
69636;SDS011;56860;51.144;16.954;2024-03-02T03:07:00;43.1;;;84.3;;
69636;SDS011;56860;51.144;16.954;2024-03-02T03:07:59;44.1;;;84.3;;
69636;SDS011;56860;51.144;16.954;2024-03-02T03:08:59;44.1;;;84.3;;
69636;SDS011;56860;51.144;16.954;2024-03-02T03:09:59;44.1;;;84.3;;
69636;SDS011;56860;51.144;16.954;2024-03-02T03:10:59;43.8;;;88.6;;
69636;SDS011;56860;51.144;16.954;2024-03-02T03:11:59;43.8;;;88.6;;
69636;SDS011;56860;51.144;16.954;2024-03-02T03:12:59;43.8;;;88.6;;
69636;SDS011;56860;51.144;16.954;2024-03-02T03:13:59;43.9;;;84.5;;
69636;SDS011;56860;51.144;16.954;2024-03-02T03:14:59;43.9;;;84.5;;
69636;SDS011;56860;51.144;16.954;2024-03-02T03:15:59;43.9;;;84.5;;
69636;SDS011;56860;51.144;16.954;2024-03-02T03:16:59;43.5;;;86.5;;
69636;SDS011;56860;51.144;16.954;2024-03-02T03:17:59;43.5;;;86.5;;
69636;SDS011;56860;51.144;16.954;2024-03-02T03:18:59;43.5;;;86.5;;
69636;SDS011;56860;51.144;16.954;2024-03-02T03:19:59;43.2;;;87.7;;
69636;SDS011;56860;51.144;16.954;2024-03-02T03:20:59;43.2;;;87.7;;
69636;SDS011;56860;51.144;16.954;2024-03-02T03:21:59;43.2;;;87.7;;
69636;SDS011;56860;51.144;16.954;2024-03-02T03:22:59;43.8;;;86.1;;
69636;SDS011;56860;51.144;16.954;2024-03-02T03:23:59;43.8;;;86.1;;
69636;SDS011;56860;51.144;16.954;2024-03-02T03:24:59;43.8;;;86.1;;
69636;SDS011;56860;51.144;16.954;2024-03-02T03:25:59;43.4;;;87.0;;
69636;SDS011;56860;51.144;16.954;2024-03-02T03:26:59;43.4;;;87.0;;
69636;SDS011;56860;51.144;16.954;2024-03-02T03:27:59;43.4;;;87.0;;
69636;SDS011;56860;51.144;16.954;2024-03-02T03:29:00;43.4;;;89.9;;
69636;SDS011;56860;51.144;16.954;2024-03-02T03:29:59;43.4;;;89.9;;
69636;SDS011;56860;51.144;16.954;2024-03-02T03:30:59;43.4;;;89.9;;
69636;SDS011;56860;51.144;16.954;2024-03-02T03:31:59;44.5;;;88.5;;
69636;SDS011;56860;51.144;16.954;2024-03-02T03:32:59;44.5;;;88.5;;
69636;SDS011;56860;51.144;16.954;2024-03-02T03:33:59;44.5;;;88.5;;
69636;SDS011;56860;51.144;16.954;2024-03-02T03:34:59;42.7;;;87.5;;
69636;SDS011;56860;51.144;16.954;2024-03-02T03:35:59;42.7;;;87.5;;
69636;SDS011;56860;51.144;16.954;2024-03-02T03:36:59;42.7;;;87.5;;
69636;SDS011;56860;51.144;16.954;2024-03-02T03:37:59;43.1;;;84.7;;
69636;SDS011;56860;51.144;16.954;2024-03-02T03:38:59;43.1;;;84.7;;
69636;SDS011;56860;51.144;16.954;2024-03-02T03:39:59;43.1;;;84.7;;
69636;SDS011;56860;51.144;16.954;2024-03-02T03:40:59;43.1;;;83.7;;
69636;SDS011;56860;51.144;16.954;2024-03-02T03:41:59;43.1;;;83.7;;
69636;SDS011;56860;51.144;16.954;2024-03-02T03:42:59;43.1;;;83.7;;
69636;SDS011;56860;51.144;16.954;2024-03-02T03:43:59;43.5;;;87.9;;
69636;SDS011;56860;51.144;16.954;2024-03-02T03:44:59;43.5;;;87.9;;
69636;SDS011;56860;51.144;16.954;2024-03-02T03:45:59;43.5;;;87.9;;
69636;SDS011;56860;51.144;16.954;2024-03-02T03:46:59;42.8;;;85.7;;
69636;SDS011;56860;51.144;16.954;2024-03-02T03:47:59;42.8;;;85.7;;
69636;SDS011;56860;51.144;16.954;2024-03-02T03:48:59;42.8;;;85.7;;
69636;SDS011;56860;51.144;16.954;2024-03-02T03:49:59;41.2;;;83.6;;
69636;SDS011;56860;51.144;16.954;2024-03-02T03:50:59;41.2;;;83.6;;
69636;SDS011;56860;51.144;16.954;2024-03-02T03:51:59;41.2;;;83.6;;
69636;SDS011;56860;51.144;16.954;2024-03-02T03:52:59;43.7;;;83.4;;
69636;SDS011;56860;51.144;16.954;2024-03-02T03:53:59;43.7;;;83.4;;
69636;SDS011;56860;51.144;16.954;2024-03-02T03:54:59;43.7;;;83.4;;
69636;SDS011;56860;51.144;16.954;2024-03-02T03:55:59;42.5;;;86.9;;
69636;SDS011;56860;51.144;16.954;2024-03-02T03:56:59;42.5;;;86.9;;
69636;SDS011;56860;51.144;16.954;2024-03-02T03:57:59;42.5;;;86.9;;
69636;SDS011;56860;51.144;16.954;2024-03-02T03:58:59;43.6;;;84.9;;
69636;SDS011;56860;51.144;16.954;2024-03-02T03:59:59;43.6;;;84.9;;
69636;SDS011;56860;51.144;16.954;2024-03-02T04:00:59;43.6;;;84.9;;
69636;SDS011;56860;51.144;16.954;2024-03-02T04:01:59;43.3;;;87.0;;
69636;SDS011;56860;51.144;16.954;2024-03-02T04:02:59;43.3;;;87.0;;
69636;SDS011;56860;51.144;16.954;2024-03-02T04:03:59;43.3;;;87.0;;
69636;SDS011;56860;51.144;16.954;2024-03-02T04:04:59;43.4;;;87.8;;
69636;SDS011;56860;51.144;16.954;2024-03-02T04:05:59;42.2;;;84.5;;
69636;SDS011;56860;51.144;16.954;2024-03-02T04:06:59;42.2;;;84.5;;
69636;SDS011;56860;51.144;16.954;2024-03-02T04:07:59;42.4;;;80.7;;
69636;SDS011;56860;51.144;16.954;2024-03-02T04:08:59;42.0;;;81.2;;
69636;SDS011;56860;51.144;16.954;2024-03-02T04:09:59;42.0;;;81.2;;
69636;SDS011;56860;51.144;16.954;2024-03-02T04:10:59;42.1;;;81.1;;
69636;SDS011;56860;51.144;16.954;2024-03-02T04:11:59;41.3;;;79.1;;
69636;SDS011;56860;51.144;16.954;2024-03-02T04:12:59;41.3;;;79.1;;
69636;SDS011;56860;51.144;16.954;2024-03-02T04:13:59;42.8;;;81.9;;
69636;SDS011;56860;51.144;16.954;2024-03-02T04:14:59;42.1;;;81.5;;
69636;SDS011;56860;51.144;16.954;2024-03-02T04:15:59;42.1;;;81.5;;
69636;SDS011;56860;51.144;16.954;2024-03-02T04:16:59;40.6;;;77.3;;
69636;SDS011;56860;51.144;16.954;2024-03-02T04:17:59;39.8;;;77.0;;
69636;SDS011;56860;51.144;16.954;2024-03-02T04:18:59;39.8;;;77.0;;
69636;SDS011;56860;51.144;16.954;2024-03-02T04:19:59;41.7;;;81.1;;
69636;SDS011;56860;51.144;16.954;2024-03-02T04:20:59;40.4;;;79.0;;
69636;SDS011;56860;51.144;16.954;2024-03-02T04:21:59;40.4;;;79.0;;
69636;SDS011;56860;51.144;16.954;2024-03-02T04:22:59;41.7;;;78.8;;
69636;SDS011;56860;51.144;16.954;2024-03-02T04:23:59;41.1;;;77.2;;
69636;SDS011;56860;51.144;16.954;2024-03-02T04:24:59;41.1;;;77.2;;
69636;SDS011;56860;51.144;16.954;2024-03-02T04:25:59;30.3;;;51.3;;
69636;SDS011;56860;51.144;16.954;2024-03-02T04:26:59;38.9;;;74.4;;
69636;SDS011;56860;51.144;16.954;2024-03-02T04:27:59;38.9;;;74.4;;
69636;SDS011;56860;51.144;16.954;2024-03-02T04:28:59;35.6;;;74.5;;
69636;SDS011;56860;51.144;16.954;2024-03-02T04:29:59;40.1;;;81.7;;
69636;SDS011;56860;51.144;16.954;2024-03-02T04:30:59;40.1;;;81.7;;
69636;SDS011;56860;51.144;16.954;2024-03-02T04:31:59;40.1;;;81.7;;
69636;SDS011;56860;51.144;16.954;2024-03-02T04:32:59;39.2;;;74.5;;
69636;SDS011;56860;51.144;16.954;2024-03-02T04:33:59;39.2;;;74.5;;
69636;SDS011;56860;51.144;16.954;2024-03-02T04:34:59;39.2;;;74.5;;
69636;SDS011;56860;51.144;16.954;2024-03-02T04:35:59;39.6;;;77.2;;
69636;SDS011;56860;51.144;16.954;2024-03-02T04:36:59;39.6;;;77.2;;
69636;SDS011;56860;51.144;16.954;2024-03-02T04:37:59;39.6;;;77.2;;
69636;SDS011;56860;51.144;16.954;2024-03-02T04:38:59;39.3;;;74.1;;
69636;SDS011;56860;51.144;16.954;2024-03-02T04:39:59;39.3;;;74.1;;
69636;SDS011;56860;51.144;16.954;2024-03-02T04:40:59;39.3;;;74.1;;
69636;SDS011;56860;51.144;16.954;2024-03-02T04:41:59;38.6;;;75.6;;
69636;SDS011;56860;51.144;16.954;2024-03-02T04:42:59;38.6;;;75.6;;
69636;SDS011;56860;51.144;16.954;2024-03-02T04:43:59;38.6;;;75.6;;
69636;SDS011;56860;51.144;16.954;2024-03-02T04:44:59;38.6;;;80.1;;
69636;SDS011;56860;51.144;16.954;2024-03-02T04:45:59;38.6;;;80.1;;
69636;SDS011;56860;51.144;16.954;2024-03-02T04:46:59;38.6;;;80.1;;
69636;SDS011;56860;51.144;16.954;2024-03-02T04:47:59;37.2;;;75.5;;
69636;SDS011;56860;51.144;16.954;2024-03-02T04:48:59;37.2;;;75.5;;
69636;SDS011;56860;51.144;16.954;2024-03-02T04:49:59;37.2;;;75.5;;
69636;SDS011;56860;51.144;16.954;2024-03-02T04:50:59;38.0;;;77.1;;
69636;SDS011;56860;51.144;16.954;2024-03-02T04:51:59;38.0;;;77.1;;
69636;SDS011;56860;51.144;16.954;2024-03-02T04:53:00;38.0;;;77.1;;
69636;SDS011;56860;51.144;16.954;2024-03-02T04:53:59;38.8;;;81.1;;
69636;SDS011;56860;51.144;16.954;2024-03-02T04:54:59;38.8;;;81.1;;
69636;SDS011;56860;51.144;16.954;2024-03-02T04:55:59;38.8;;;81.1;;
69636;SDS011;56860;51.144;16.954;2024-03-02T04:56:59;39.2;;;74.7;;
69636;SDS011;56860;51.144;16.954;2024-03-02T04:57:59;39.2;;;74.7;;
69636;SDS011;56860;51.144;16.954;2024-03-02T04:58:59;39.2;;;74.7;;
69636;SDS011;56860;51.144;16.954;2024-03-02T04:59:59;39.4;;;80.8;;
69636;SDS011;56860;51.144;16.954;2024-03-02T05:00:59;39.4;;;80.8;;
69636;SDS011;56860;51.144;16.954;2024-03-02T05:01:59;39.4;;;80.8;;
69636;SDS011;56860;51.144;16.954;2024-03-02T05:02:59;37.6;;;72.2;;
69636;SDS011;56860;51.144;16.954;2024-03-02T05:03:59;37.6;;;72.2;;
69636;SDS011;56860;51.144;16.954;2024-03-02T05:04:59;37.6;;;72.2;;
69636;SDS011;56860;51.144;16.954;2024-03-02T05:05:59;37.3;;;73.9;;
69636;SDS011;56860;51.144;16.954;2024-03-02T05:06:59;37.3;;;73.9;;
69636;SDS011;56860;51.144;16.954;2024-03-02T05:07:59;37.3;;;73.9;;
69636;SDS011;56860;51.144;16.954;2024-03-02T05:08:59;39.1;;;77.1;;
69636;SDS011;56860;51.144;16.954;2024-03-02T05:09:59;39.1;;;77.1;;
69636;SDS011;56860;51.144;16.954;2024-03-02T05:10:59;39.1;;;77.1;;
69636;SDS011;56860;51.144;16.954;2024-03-02T05:11:59;37.9;;;72.9;;
69636;SDS011;56860;51.144;16.954;2024-03-02T05:12:59;37.9;;;72.9;;
69636;SDS011;56860;51.144;16.954;2024-03-02T05:13:59;37.9;;;72.9;;
69636;SDS011;56860;51.144;16.954;2024-03-02T05:14:59;37.0;;;72.3;;
69636;SDS011;56860;51.144;16.954;2024-03-02T05:15:59;37.0;;;72.3;;
69636;SDS011;56860;51.144;16.954;2024-03-02T05:16:59;37.0;;;72.3;;
69636;SDS011;56860;51.144;16.954;2024-03-02T05:17:59;37.7;;;70.9;;
69636;SDS011;56860;51.144;16.954;2024-03-02T05:18:59;37.7;;;70.9;;
69636;SDS011;56860;51.144;16.954;2024-03-02T05:19:59;37.7;;;70.9;;
69636;SDS011;56860;51.144;16.954;2024-03-02T05:20:59;37.3;;;69.7;;
69636;SDS011;56860;51.144;16.954;2024-03-02T05:21:59;37.3;;;69.7;;
69636;SDS011;56860;51.144;16.954;2024-03-02T05:22:59;37.3;;;69.7;;
69636;SDS011;56860;51.144;16.954;2024-03-02T05:23:59;36.7;;;74.2;;
69636;SDS011;56860;51.144;16.954;2024-03-02T05:24:59;36.7;;;74.2;;
69636;SDS011;56860;51.144;16.954;2024-03-02T05:25:59;36.7;;;74.2;;
69636;SDS011;56860;51.144;16.954;2024-03-02T05:26:59;36.3;;;70.6;;
69636;SDS011;56860;51.144;16.954;2024-03-02T05:27:59;36.3;;;70.6;;
69636;SDS011;56860;51.144;16.954;2024-03-02T05:28:59;36.3;;;70.6;;
69636;SDS011;56860;51.144;16.954;2024-03-02T05:29:59;37.5;;;73.7;;
69636;SDS011;56860;51.144;16.954;2024-03-02T05:30:59;37.5;;;73.7;;
69636;SDS011;56860;51.144;16.954;2024-03-02T05:31:59;37.5;;;73.7;;
69636;SDS011;56860;51.144;16.954;2024-03-02T05:32:59;37.0;;;69.7;;
69636;SDS011;56860;51.144;16.954;2024-03-02T05:33:59;37.0;;;69.7;;
69636;SDS011;56860;51.144;16.954;2024-03-02T05:34:59;37.0;;;69.7;;
69636;SDS011;56860;51.144;16.954;2024-03-02T05:35:59;37.1;;;74.9;;
69636;SDS011;56860;51.144;16.954;2024-03-02T05:36:59;37.1;;;74.9;;
69636;SDS011;56860;51.144;16.954;2024-03-02T05:37:59;37.1;;;74.9;;
69636;SDS011;56860;51.144;16.954;2024-03-02T05:38:59;37.2;;;74.4;;
69636;SDS011;56860;51.144;16.954;2024-03-02T05:39:59;37.2;;;74.4;;
69636;SDS011;56860;51.144;16.954;2024-03-02T05:40:59;37.2;;;74.4;;
69636;SDS011;56860;51.144;16.954;2024-03-02T05:41:59;36.8;;;68.4;;
69636;SDS011;56860;51.144;16.954;2024-03-02T05:42:59;36.8;;;68.4;;
69636;SDS011;56860;51.144;16.954;2024-03-02T05:43:59;36.8;;;68.4;;
69636;SDS011;56860;51.144;16.954;2024-03-02T05:44:59;37.0;;;70.4;;
69636;SDS011;56860;51.144;16.954;2024-03-02T05:45:59;37.0;;;70.4;;
69636;SDS011;56860;51.144;16.954;2024-03-02T05:46:59;37.0;;;70.4;;
69636;SDS011;56860;51.144;16.954;2024-03-02T05:47:59;37.0;;;69.5;;
69636;SDS011;56860;51.144;16.954;2024-03-02T05:48:59;37.0;;;69.5;;
69636;SDS011;56860;51.144;16.954;2024-03-02T05:49:59;37.0;;;69.5;;
69636;SDS011;56860;51.144;16.954;2024-03-02T05:50:59;36.3;;;69.2;;
69636;SDS011;56860;51.144;16.954;2024-03-02T05:51:59;36.3;;;69.2;;
69636;SDS011;56860;51.144;16.954;2024-03-02T05:52:59;36.3;;;69.2;;
69636;SDS011;56860;51.144;16.954;2024-03-02T05:53:59;35.7;;;67.3;;
69636;SDS011;56860;51.144;16.954;2024-03-02T05:54:59;35.7;;;67.3;;
69636;SDS011;56860;51.144;16.954;2024-03-02T05:55:59;35.7;;;67.3;;
69636;SDS011;56860;51.144;16.954;2024-03-02T05:56:59;36.9;;;68.3;;
69636;SDS011;56860;51.144;16.954;2024-03-02T05:57:59;36.9;;;68.3;;